Vallscreek, West Virginia
Current Conditions -  °F | °C
As of 9:55 PM on Friday 31 Oct 2014 (Local Time) from KJFZ Reporting Station
Light Rain Light Rain  
Wind Chill: 41°   Ceiling: 1100
Heat Index: 41°   Visibility: 7mi
Dew Point: 39°   Wind: 3mph
Humidity: 92%   Direction: 310°NW
Pressure: 29.83"   Gusts: NA
Location:  37.2686°N, 81.6669°W
Report Text: KJFZ 010155Z AUTO 31003KT 7SM -RA OVC011 05/04 A2983 RMK AO2 P0002 T00500038
Loading
Personal Weather Stations






























Interactive Weather Map
Tropical Storm Tracking
New forecast layout! Learn more

10-Day Weather Forecast

Advertisements
Track Severe Weather on mobile